createdAt,value
2018-09-26T00:00:03.451Z,0
2018-09-26T00:05:03.392Z,0
2018-09-26T00:10:03.118Z,0
2018-09-26T00:15:02.749Z,0
2018-09-26T00:20:03.491Z,0
2018-09-26T00:25:03.159Z,0
2018-09-26T00:30:02.851Z,0
2018-09-26T00:35:03.621Z,0
2018-09-26T00:40:03.337Z,0
2018-09-26T00:45:02.985Z,0
2018-09-26T00:50:02.587Z,0
2018-09-26T00:55:03.286Z,0
2018-09-26T01:00:02.886Z,0
2018-09-26T01:05:03.492Z,0
2018-09-26T01:10:03.468Z,0
2018-09-26T01:15:03.001Z,0
2018-09-26T01:20:02.695Z,0
2018-09-26T01:25:03.395Z,0
2018-09-26T01:30:03.031Z,0
2018-09-26T01:35:02.731Z,0
2018-09-26T01:40:03.451Z,0
2018-09-26T01:45:03.020Z,0
2018-09-26T01:50:02.672Z,0
2018-09-26T01:55:03.437Z,0
2018-09-26T02:00:03.257Z,0
2018-09-26T02:05:03.013Z,0
2018-09-26T02:10:02.919Z,0
2018-09-26T02:15:03.546Z,0
2018-09-26T02:20:03.203Z,0
2018-09-26T02:25:02.855Z,0
2018-09-26T02:30:03.511Z,0
2018-09-26T02:35:03.325Z,0
2018-09-26T02:40:03.159Z,0
2018-09-26T02:45:02.802Z,0
2018-09-26T02:50:03.532Z,0
2018-09-26T02:55:03.209Z,0
2018-09-26T03:00:03.423Z,0
2018-09-26T03:05:03.050Z,0
2018-09-26T03:10:02.920Z,0
2018-09-26T03:15:03.567Z,0
2018-09-26T03:20:03.280Z,0
2018-09-26T03:25:02.959Z,0
2018-09-26T03:30:03.615Z,0
2018-09-26T03:35:03.242Z,0
2018-09-26T03:40:03.043Z,0
2018-09-26T03:45:02.639Z,0
2018-09-26T03:50:03.438Z,0
2018-09-26T03:55:03.108Z,0
2018-09-26T04:00:03.192Z,0
2018-09-26T04:05:03.591Z,0
2018-09-26T04:10:02.631Z,0
2018-09-26T04:15:03.549Z,0
2018-09-26T04:20:03.221Z,0
2018-09-26T04:25:03.008Z,0
2018-09-26T04:30:02.760Z,0
2018-09-26T04:35:02.652Z,1
2018-09-26T04:40:03.426Z,0
2018-09-26T04:45:02.968Z,0
2018-09-26T04:50:02.589Z,0
2018-09-26T04:55:03.345Z,0
2018-09-26T05:00:02.876Z,0
2018-09-26T05:05:03.466Z,2
2018-09-26T05:10:03.320Z,2
2018-09-26T05:15:02.925Z,2
2018-09-26T05:20:02.681Z,3
2018-09-26T05:25:03.363Z,1
2018-09-26T05:30:02.953Z,2
2018-09-26T05:35:02.665Z,0
2018-09-26T05:40:03.342Z,0
2018-09-26T05:45:02.923Z,2
2018-09-26T05:50:02.701Z,1
2018-09-26T05:55:03.429Z,3
2018-09-26T06:00:02.972Z,2
2018-09-26T06:05:02.668Z,0
2018-09-26T06:10:03.579Z,2
2018-09-26T06:15:03.276Z,2
2018-09-26T06:20:02.921Z,2
2018-09-26T06:25:03.576Z,2
2018-09-26T06:30:03.245Z,3
2018-09-26T06:35:03.260Z,4
2018-09-26T06:40:03.212Z,2
2018-09-26T06:45:02.858Z,2
2018-09-26T06:50:03.496Z,1
2018-09-26T06:55:03.117Z,2
2018-09-26T07:00:02.736Z,3
2018-09-26T07:05:03.440Z,3
2018-09-26T07:10:03.203Z,3
2018-09-26T07:15:02.779Z,3
2018-09-26T07:20:03.570Z,3
2018-09-26T07:25:03.343Z,3
2018-09-26T07:30:03.353Z,3
2018-09-26T07:35:02.926Z,3
2018-09-26T07:40:02.531Z,6
2018-09-26T07:45:03.212Z,4
2018-09-26T07:50:02.809Z,6
2018-09-26T07:55:03.501Z,6
2018-09-26T08:00:03.867Z,4
2018-09-26T08:05:02.748Z,4
2018-09-26T08:10:03.531Z,4
2018-09-26T08:15:03.603Z,3
2018-09-26T08:20:03.264Z,4
2018-09-26T08:25:02.872Z,3
2018-09-26T08:30:03.536Z,2
2018-09-26T08:35:03.196Z,3
2018-09-26T08:40:02.892Z,8
2018-09-26T08:45:03.572Z,6
2018-09-26T08:50:03.189Z,5
2018-09-26T08:55:02.915Z,5
2018-09-26T09:00:03.606Z,2
2018-09-26T09:05:03.196Z,7
2018-09-26T09:10:03.123Z,5
2018-09-26T09:15:02.760Z,2
2018-09-26T09:20:03.466Z,3
2018-09-26T09:25:03.011Z,7
2018-09-26T09:30:02.819Z,4
2018-09-26T09:35:03.548Z,5
2018-09-26T09:40:03.262Z,2
2018-09-26T09:45:02.880Z,5
2018-09-26T09:50:02.576Z,6
2018-09-26T09:55:03.211Z,4
2018-09-26T10:00:02.881Z,3
2018-09-26T10:05:03.510Z,7
2018-09-26T10:10:03.241Z,8
2018-09-26T10:15:02.872Z,5
2018-09-26T10:20:02.549Z,4
2018-09-26T10:25:03.576Z,5
2018-09-26T10:30:03.317Z,0
2018-09-26T10:35:03.444Z,6
2018-09-26T10:40:03.542Z,4
2018-09-26T10:45:03.100Z,6
2018-09-26T10:50:02.841Z,6
2018-09-26T10:55:03.521Z,5
2018-09-26T11:00:03.163Z,4
2018-09-26T11:05:02.747Z,4
2018-09-26T11:10:03.344Z,4
2018-09-26T11:15:02.951Z,7
2018-09-26T11:20:03.540Z,6
2018-09-26T11:25:03.131Z,5
2018-09-26T11:30:02.807Z,5
2018-09-26T11:35:03.445Z,7
2018-09-26T11:40:03.151Z,4
2018-09-26T11:45:02.729Z,5
2018-09-26T11:50:03.297Z,4
2018-09-26T11:55:02.962Z,5
2018-09-26T12:00:02.970Z,5
2018-09-26T12:05:03.071Z,10
2018-09-26T12:10:03.167Z,5
2018-09-26T12:15:02.750Z,6
2018-09-26T12:20:03.323Z,9
2018-09-26T12:25:02.889Z,2
2018-09-26T12:30:03.484Z,2
2018-09-26T12:35:03.169Z,8
2018-09-26T12:40:02.803Z,3
2018-09-26T12:45:03.467Z,9
2018-09-26T12:50:02.935Z,3
2018-09-26T12:55:02.654Z,4
2018-09-26T13:00:03.220Z,5
2018-09-26T13:05:02.882Z,6
2018-09-26T13:10:02.576Z,4
2018-09-26T13:15:03.231Z,6
2018-09-26T13:20:02.836Z,7
2018-09-26T13:25:03.449Z,6
2018-09-26T13:30:02.991Z,5
2018-09-26T13:35:02.708Z,8
2018-09-26T13:40:03.457Z,7
2018-09-26T13:45:03.097Z,4
2018-09-26T13:50:02.746Z,8
2018-09-26T13:55:03.345Z,5
2018-09-26T14:00:03.022Z,7
2018-09-26T14:05:02.748Z,5
2018-09-26T14:10:03.459Z,8
2018-09-26T14:15:03.048Z,6
2018-09-26T14:20:02.739Z,5
2018-09-26T14:25:03.397Z,2
2018-09-26T14:30:03.024Z,6
2018-09-26T14:35:02.681Z,6
2018-09-26T14:40:03.435Z,7
2018-09-26T14:45:03.070Z,3
2018-09-26T14:50:02.719Z,6
2018-09-26T14:55:03.398Z,8
2018-09-26T15:00:02.944Z,8
2018-09-26T15:05:02.588Z,5
2018-09-26T15:10:03.408Z,9
2018-09-26T15:15:03.055Z,5
2018-09-26T15:20:02.903Z,6
2018-09-26T15:25:02.666Z,6
2018-09-26T15:30:03.334Z,7
2018-09-26T15:35:03.172Z,8
2018-09-26T15:40:03.124Z,8
2018-09-26T15:45:02.968Z,5
2018-09-26T15:50:02.651Z,4
2018-09-26T15:55:03.283Z,6
2018-09-26T16:00:02.893Z,2
2018-09-26T16:05:02.637Z,7
2018-09-26T16:10:03.255Z,4
2018-09-26T16:15:02.856Z,6
2018-09-26T16:20:03.552Z,6
2018-09-26T16:25:03.190Z,3
2018-09-26T16:30:02.838Z,3
2018-09-26T16:35:03.834Z,3
2018-09-26T16:40:03.550Z,4
2018-09-26T16:45:03.339Z,5
2018-09-26T16:50:03.058Z,4
2018-09-26T16:55:02.671Z,2
2018-09-26T17:00:03.275Z,1
2018-09-26T17:05:03.218Z,2
2018-09-26T17:10:02.990Z,2
2018-09-26T17:15:02.627Z,2
2018-09-26T17:20:03.275Z,0
2018-09-26T17:25:02.962Z,2
2018-09-26T17:30:02.558Z,2
2018-09-26T17:35:03.403Z,3
2018-09-26T17:40:03.161Z,1
2018-09-26T17:45:02.720Z,0
2018-09-26T17:50:03.392Z,0
2018-09-26T17:55:03.078Z,0
2018-09-26T18:00:02.765Z,0
2018-09-26T18:05:03.524Z,0
2018-09-26T18:10:03.201Z,0
2018-09-26T18:15:02.975Z,0
2018-09-26T18:20:03.579Z,0
2018-09-26T18:25:03.216Z,1
2018-09-26T18:30:02.855Z,0
2018-09-26T18:35:03.917Z,2
2018-09-26T18:40:02.574Z,0
2018-09-26T18:45:03.610Z,0
2018-09-26T18:50:03.733Z,0
2018-09-26T18:55:03.458Z,0
2018-09-26T19:00:03.183Z,0
2018-09-26T19:05:03.986Z,0
2018-09-26T19:10:03.471Z,0
2018-09-26T19:15:03.600Z,0
2018-09-26T19:20:03.392Z,0
2018-09-26T19:25:03.041Z,0
2018-09-26T19:30:02.850Z,0
2018-09-26T19:35:03.578Z,2
2018-09-26T19:40:03.314Z,0
2018-09-26T19:45:03.279Z,0
2018-09-26T19:50:03.100Z,0
2018-09-26T19:55:02.708Z,0
2018-09-26T20:00:03.440Z,0
2018-09-26T20:05:03.095Z,0
2018-09-26T20:10:02.946Z,1
2018-09-26T20:15:02.618Z,0
2018-09-26T20:20:03.350Z,0
2018-09-26T20:25:03.278Z,0
2018-09-26T20:30:03.127Z,0
2018-09-26T20:35:03.295Z,0
2018-09-26T20:40:03.370Z,0
2018-09-26T20:45:03.008Z,0
2018-09-26T20:50:02.620Z,0
2018-09-26T20:55:03.183Z,0
2018-09-26T21:00:02.787Z,0
2018-09-26T21:05:03.389Z,0
2018-09-26T21:10:03.038Z,0
2018-09-26T21:15:02.653Z,0
2018-09-26T21:20:03.261Z,1
2018-09-26T21:25:02.923Z,0
2018-09-26T21:30:02.652Z,0
2018-09-26T21:35:03.305Z,0
2018-09-26T21:40:02.951Z,0
2018-09-26T21:45:02.574Z,0
2018-09-26T21:50:03.240Z,0
2018-09-26T21:55:03.088Z,0
2018-09-26T22:00:02.731Z,0
2018-09-26T22:05:03.311Z,0
2018-09-26T22:10:03.029Z,0
2018-09-26T22:15:02.595Z,0
2018-09-26T22:20:03.166Z,0
2018-09-26T22:25:02.840Z,0
2018-09-26T22:30:03.482Z,0
2018-09-26T22:35:02.953Z,0
2018-09-26T22:40:02.598Z,0
2018-09-26T22:45:03.271Z,0
2018-09-26T22:50:02.868Z,0
2018-09-26T22:55:03.467Z,0
2018-09-26T23:00:03.007Z,0
2018-09-26T23:05:03.253Z,0
2018-09-26T23:10:02.948Z,0
2018-09-26T23:15:02.622Z,0
2018-09-26T23:20:03.234Z,0
2018-09-26T23:25:02.878Z,0
2018-09-26T23:30:03.591Z,0
2018-09-26T23:35:03.249Z,0
2018-09-26T23:40:02.913Z,0
2018-09-26T23:45:02.510Z,0
2018-09-26T23:50:03.417Z,0
2018-09-26T23:55:03.013Z,0
